Main page
METAR-TAF:

METAR-TAF

Airports :

Birmingham, England

Birmingham Airport

latitude: 52-27N, longitude: 001-44W, elevation: 99 m

Current weather observation

The report was made 33 minutes ago, at 21:20 UTC
Wind 2 kt from the South
Temperature 10°C
Humidity 76%
Pressure 1016 hPa
Visibility 10 km or more
Broken clouds at a height of 3500 ft

METAR: EGBB 282120Z 17002KT 9999 BKN035 10/06 Q1016

Time: 22:53 (21:53 UTC)

Forecast

The report was made 4 hours and 51 minutes ago, at 17:02 UTC
Forecast valid from 28 at 18 UTC to 29 at 18 UTC
Wind 3 kt from variable directions
Visibility 10 km or more
Scattered clouds at a height of 3000 ft
Probability 30%
from 29 at 03 UTC to 29 at 08 UTC
Visibility: 4000 m
mist
Becoming
from 29 at 09 UTC to 29 at 12 UTC
Wind 10 kt from the South

TAF: EGBB 281702Z 2818/2918 VRB03KT 9999 SCT030 PROB30 2903/2908 4000 BR BECMG 2909/2912 17010KT

Weather observations and forecasts of more than 4000 airports (METAR and TAF reports).

The available stations are represented by yellow and red dots on the map.

Hover mouse over dot to see the name of the station.

Then click to see weather observations and forecasts.

To change the map : click on the green buttons with a black cross to zoom in, on the green button with a dash to zoom out, or on the green arrows for adjacent maps.


METAR-TAF: